EW3920 Weather Reports


Display with metric or nautical units.
time (UTC)temp
F
wind
direction
speed
MPH
gust
MPH
rain 1hr
in
rain 24hr
in
rain mn
in
humidity
%
barometer
mb
20220810013210 69 37 4.0 0.0 0.00 0.00 0.00 63 1017.8
20220810011218 70 41 2.0 0.0 0.00 0.00 0.00 61 1017.8
20220810010138 70 47 2.0 0.0 0.00 0.00 0.00 60 1017.8
20220810005213 71 43 2.0 0.0 0.00 0.00 0.00 58 1017.9
20220810004157 71 30 3.0 0.0 0.00 0.00 0.00 57 1018.0
20220810003216 72 33 3.0 0.0 0.00 0.00 0.00 56 1018.1
20220810001154 72 30 3.0 0.0 0.00 0.00 0.00 54 1018.1
20220809235153 72 23 4.0 0.0 0.00 0.00 0.00 54 1018.1
20220809234217 73 19 2.0 0.0 0.00 0.00 0.00 53 1018.1
20220809233153 73 18 0.0 0.0 0.00 0.00 0.00 52 1018.1
20220809230141 74 35 1.0 0.0 0.00 0.00 0.00 50 1018.1
20220809222230 74 21 6.0 0.0 0.00 0.00 0.00 50 1017.8
20220809221136 74 53 3.0 0.0 0.00 0.00 0.00 53 1017.8
20220809212232 77 43 11.0 0.0 0.00 0.00 0.00 45 1017.2
20220809211152 77 40 12.0 0.0 0.00 0.00 0.00 45 1017.2
20220809205135 77 34 9.0 0.0 0.00 0.00 0.00 45 1017.2
20220809203210 77 11 13.0 0.0 0.00 0.00 0.00 44 1017.1
20220809202145 77 51 10.0 0.0 0.00 0.00 0.00 44 1017.0
20220809201206 78 44 17.0 0.0 0.00 0.00 0.00 44 1017.1
20220809195218 78 46 15.0 0.0 0.00 0.00 0.00 44 1017.2
20220809194230 79 11 20.0 0.0 0.00 0.00 0.00 44 1017.2
20220809193147 79 41 15.0 0.0 0.00 0.00 0.00 43 1017.1
20220809192143 79 46 18.0 0.0 0.00 0.00 0.00 43 1017.0
20220809191200 79 13 17.0 0.0 0.00 0.00 0.00 43 1017.1
20220809190148 80 70 17.0 0.0 0.00 0.00 0.00 42 1017.1
20220809183135 80 1 25.0 25.0 0.00 0.00 0.00 43 1016.8
20220809181158 82 24 14.0 0.0 0.00 0.00 0.00 42 1016.8
20220809180126 82 41 17.0 0.0 0.00 0.00 0.00 41 1016.7
20220809174142 84 11 10.0 0.0 0.00 0.00 0.00 40 1016.8
20220809173206 84 47 6.0 0.0 0.00 0.00 0.00 40 1016.7
20220809172228 84 27 8.0 0.0 0.00 0.00 0.00 40 1016.7
20220809170146 85 8 10.0 0.0 0.00 0.00 0.00 38 1016.6
20220809164212 86 61 6.0 0.0 0.00 0.00 0.00 38 1016.8
20220809150200 87 27 10.0 14.0 0.00 0.00 0.00 40 1017.3
20220809145221 87 117 3.0 0.0 0.00 0.00 0.00 41 1017.2
20220809144230 86 297 2.0 0.0 0.00 0.00 0.00 43 1017.2
20220809143106 86 232 4.0 0.0 0.00 0.00 0.00 45 1017.2
20220809142153 86 287 4.0 0.0 0.00 0.00 0.00 46 1017.3
20220809141115 84 250 4.0 0.0 0.00 0.00 0.00 51 1017.6
20220809140156 84 243 7.0 0.0 0.00 0.00 0.00 47 1017.4
20220809135210 84 233 2.0 0.0 0.00 0.00 0.00 49 1017.6
20220809134228 84 246 4.0 0.0 0.00 0.00 0.00 54 1017.7
20220809131103 82 253 7.0 0.0 0.00 0.00 0.00 49 1018.0
20220809130224 82 293 3.0 0.0 0.00 0.00 0.00 48 1018.1
20220809125226 82 299 4.0 0.0 0.00 0.00 0.00 49 1018.2
20220809123206 82 250 6.0 0.0 0.00 0.00 0.00 50 1018.5
20220809122137 81 238 4.0 0.0 0.00 0.00 0.00 52 1018.5
20220809120136 79 210 5.0 0.0 0.00 0.00 0.00 55 1018.6
20220809114204 78 293 1.0 0.0 0.00 0.00 0.00 58 1018.9
20220809105133 76 229 6.0 0.0 0.00 0.00 0.00 61 1019.2
20220809104204 76 278 3.0 0.0 0.00 0.00 0.00 62 1019.2
20220809103148 76 249 4.0 0.0 0.00 0.00 0.00 63 1019.3
20220809101135 76 280 6.0 0.0 0.00 0.00 0.00 62 1019.3
20220809094233 73 257 6.0 0.0 0.00 0.00 0.00 67 1019.4
20220809093155 73 262 6.0 0.0 0.00 0.00 0.00 66 1019.3
20220809092136 73 275 6.0 0.0 0.00 0.00 0.00 68 1019.4
20220809091140 73 217 4.0 0.0 0.00 0.00 0.00 67 1019.4
20220809085141 73 235 5.0 0.0 0.00 0.00 0.00 65 1019.4
20220809083106 73 218 4.0 0.0 0.00 0.00 0.00 65 1019.3
20220809082206 73 250 2.0 0.0 0.00 0.00 0.00 66 1019.3
20220809081234 72 257 2.0 0.0 0.00 0.00 0.00 65 1019.4
20220809080230 72 250 2.0 0.0 0.00 0.00 0.00 66 1019.5
20220809074151 71 276 3.0 0.0 0.00 0.00 0.00 69 1019.4
20220809073206 71 246 4.0 0.0 0.00 0.00 0.00 70 1019.3
20220809071144 70 253 3.0 0.0 0.00 0.00 0.00 72 1019.3
20220809070203 70 250 3.0 0.0 0.00 0.00 0.00 71 1019.3
20220809065227 70 269 2.0 0.0 0.00 0.00 0.00 72 1019.3
20220809064146 70 269 2.0 0.0 0.00 0.00 0.00 72 1019.3
20220809063146 70 265 1.0 0.0 0.00 0.00 0.00 72 1019.1
20220809061204 69 283 0.0 0.0 0.00 0.00 0.00 73 1019.0
20220809060229 68 283 1.0 0.0 0.00 0.00 0.00 73 1019.0
20220809055155 68 35 1.0 0.0 0.00 0.00 0.00 73 1019.0
20220809054213 68 35 0.0 0.0 0.00 0.00 0.00 73 1019.0
20220809053154 67 36 1.0 0.0 0.00 0.00 0.00 74 1018.9
20220809051145 66 36 3.0 0.0 0.00 0.00 0.00 75 1018.7
20220809050146 66 44 3.0 0.0 0.00 0.00 0.00 75 1018.7
20220809045149 66 40 3.0 0.0 0.00 0.00 0.00 75 1018.5
20220809044143 67 34 3.0 0.0 0.00 0.00 0.00 75 1018.5
20220809041152 67 38 2.0 0.0 0.00 0.00 0.00 73 1018.4
20220809040112 67 27 2.0 0.0 0.00 0.00 0.00 73 1018.3
20220809034151 67 32 4.0 0.0 0.00 0.00 0.00 73 1018.2
20220809033104 67 37 3.0 0.0 0.00 0.00 0.00 72 1018.2
20220809032145 67 24 3.0 0.0 0.00 0.00 0.00 73 1018.2
20220809031141 67 30 2.0 0.0 0.00 0.00 0.00 73 1018.3
20220809030146 67 35 3.0 0.0 0.00 0.00 0.00 72 1018.3
20220809025223 68 34 3.0 0.0 0.00 0.00 0.00 72 1018.3
20220809023145 68 27 3.0 0.0 0.00 0.00 0.00 71 1018.3
20220809022213 68 38 3.0 0.0 0.00 0.00 0.00 71 1018.2
20220809021157 68 41 3.0 0.0 0.00 0.00 0.00 71 1018.1
20220809020139 68 48 3.0 0.0 0.00 0.00 0.00 71 1018.0